Prospect Creek, Prospect Cree, AK

4:19 AM AKST on December 20, 2014 (GMT -0900)
Bettles | Change Station
CLOSE
Current Station
Airport
Location: Bettles,
Elevation: 643 ft
Nearby Weather Stations

Elev 643 ft 66.91 °N, 151.53 °W | Updated 26 minutes ago

Clear
Clear
-11 °F
Feels Like -20 °F
N
4
Wind Variable Wind from NNW

Today
High -- | Low -- °F
--% Chance of Precip.
Yesterday
High -- | Low -- °F
Precip. -- in
12:05 PM 1:55 PM
Waning Crescent, 3% visible
Pressure 29.42 in
Visibility 10.0 miles
Clouds Clear
Windchill -20 °F
Dew Point -17 °F
Humidity 75%
Rainfall 0.00 in
Snow Depth Not available.
UV 0 out of 12
Pollen Not available.
Air Quality Not available.
Flu Activity Not available.
METAR PABT 201253Z 34003KT 10SM CLR M24/M27 A2934 RMK AO2 SLP960 T12391272

More Conditions Fewer Conditions

Pressure 29.42 in
Visibility 10.0 miles
Clouds Clear
Windchill -20 °F
Dew Point -17 °F
Humidity 75%
Rainfall 0.00 in
Snow Depth Not available.
UV 0 out of 12
Pollen Not available.
Air Quality Not available.
Flu Activity Not available.
METAR PABT 201253Z 34003KT 10SM CLR M24/M27 A2934 RMK AO2 SLP960 T12391272

More Conditions Fewer Conditions

10-Day Weather Forecast

Almanac

Astronomy

Dec. 20, 2014 Rise Set
Actual Time
Civil Twilight
Nautical Twilight
Astronomical Twilight
Moon
Length of Visible Light
Length of Day
Tomorrow will be .
, % of the Moon is Illuminated

Today's Extremes

State Highs State Lows

Community

WunderPhotos

Upload Photos

1,779,167 photos uploaded!

WunderBlogs® & News

Nearby

Air Quality

  Air Quality AQ Index Pollutant
Not available.

Snow Depth

Station Depth Elevation

Earthquake Activity

City Distance Mag. Time & Date
Minimum magnitude displayed is 2.5.

Coastal Water Temperatures

Place Temperature

Nearby Weather Stations